Time;durP1;ratioP1;P1;durP2;ratioP2;P2;SDS_P1;SDS_P2;PMS_P1;PMS_P2;Temp;Humidity;BMP_temperature;BMP_pressure;BME280_temperature;BME280_humidity;BME280_pressure;Samples;Min_cycle;Max_cycle;Signal;HPM_P1;HPM_P2
2023/07/04 00:00:28;;;;;;;;;3.00;3.00;;;;;17.66;53.14;99377.19;5095780;28;8816;-60
2023/07/04 00:02:56;;;;;;;;;3.00;2.60;;;;;17.64;53.02;99377.41;5095551;28;8823;-58
2023/07/04 00:05:24;;;;;;;;;3.00;1.40;;;;;17.58;52.90;99388.88;5095463;28;8799;-60
2023/07/04 00:07:52;;;;;;;;;1.00;1.00;;;;;17.54;53.16;99386.75;5095556;28;8846;-58
2023/07/04 00:10:24;;;;;;;;;2.20;2.20;;;;;17.48;53.91;99388.28;5095048;28;8984;-60
2023/07/04 00:12:52;;;;;;;;;1.00;1.00;;;;;17.43;53.29;99389.84;5095632;28;8879;-60
2023/07/04 00:15:19;;;;;;;;;1.00;1.00;;;;;17.38;53.95;99387.69;5095252;28;8814;-59
2023/07/04 00:17:47;;;;;;;;;3.00;3.00;;;;;17.34;53.52;99390.88;5095812;28;8984;-59
2023/07/04 00:20:15;;;;;;;;;1.00;1.00;;;;;17.28;53.92;99388.88;5096053;28;8822;-60
2023/07/04 00:22:44;;;;;;;;;2.20;1.00;;;;;17.23;53.86;99389.44;5095702;28;8829;-60
2023/07/04 00:25:12;;;;;;;;;1.00;1.00;;;;;17.18;53.93;99390.97;5095815;28;8810;-58
2023/07/04 00:27:40;;;;;;;;;4.00;4.00;;;;;17.15;54.44;99388.66;5095725;28;8822;-60
2023/07/04 00:30:09;;;;;;;;;0.60;0.60;;;;;17.10;54.03;99386.47;5094971;28;8834;-59
2023/07/04 00:32:37;;;;;;;;;1.40;1.40;;;;;17.07;54.80;99392.22;5095337;28;8832;-59
2023/07/04 00:35:06;;;;;;;;;1.00;1.00;;;;;17.04;54.09;99389.03;5097829;28;8804;-60
2023/07/04 00:37:34;;;;;;;;;2.20;2.20;;;;;17.03;54.55;99398.97;5099346;28;8822;-60
2023/07/04 00:40:09;;;;;;;;;3.00;1.00;;;;;17.02;54.39;99391.91;5098799;28;8842;-60
2023/07/04 00:42:37;;;;;;;;;3.40;1.00;;;;;17.01;54.42;99395.59;5099354;28;8822;-60
2023/07/04 00:45:05;;;;;;;;;2.20;1.00;;;;;17.02;54.83;99399.16;5099126;28;8825;-59
2023/07/04 00:47:43;;;;;;;;;1.40;1.40;;;;;17.03;54.62;99398.13;5098472;28;8842;-59
2023/07/04 00:50:13;;;;;;;;;3.00;1.80;;;;;17.02;54.62;99397.28;5098794;28;8834;-60
2023/07/04 00:52:42;;;;;;;;;2.20;1.00;;;;;17.02;55.01;99396.44;5099185;28;9524;-60
2023/07/04 00:55:09;;;;;;;;;0.20;0.20;;;;;17.01;54.57;99406.38;5098882;28;8821;-59
2023/07/04 00:57:37;;;;;;;;;3.00;3.00;;;;;16.98;54.35;99408.56;5098658;28;8821;-60
2023/07/04 01:00:13;;;;;;;;;3.20;3.20;;;;;16.96;54.78;99394.47;5098225;28;8844;-59
2023/07/04 01:02:45;;;;;;;;;2.60;1.00;;;;;16.93;54.57;99401.03;5098893;28;8828;-60
2023/07/04 01:05:13;;;;;;;;;4.60;3.60;;;;;16.88;55.34;99400.72;5098462;28;9508;-59
2023/07/04 01:07:41;;;;;;;;;3.00;1.40;;;;;16.84;55.33;99402.09;5097628;28;8840;-59
2023/07/04 01:10:10;;;;;;;;;1.00;1.00;;;;;16.79;55.59;99399.06;5097771;28;8829;-58
2023/07/04 01:12:39;;;;;;;;;4.20;3.40;;;;;16.78;55.76;99400.09;5098487;28;8849;-60
2023/07/04 01:15:06;;;;;;;;;3.00;1.00;;;;;16.76;55.36;99404.81;5097999;28;8812;-57
2023/07/04 01:17:35;;;;;;;;;4.40;4.40;;;;;16.75;55.37;99395.06;5096777;28;8843;-57
2023/07/04 01:20:02;;;;;;;;;1.00;1.00;;;;;16.71;55.51;99388.34;5098166;28;8872;-60
2023/07/04 01:22:31;;;;;;;;;5.25;3.50;;;;;16.65;55.88;99385.53;5098351;28;8846;-60
2023/07/04 01:24:59;;;;;;;;;3.00;3.00;;;;;16.59;56.24;99394.28;5098439;28;8824;-58
2023/07/04 01:27:26;;;;;;;;;1.50;1.00;;;;;16.52;56.38;99399.53;5098244;28;8904;-59
2023/07/04 01:29:54;;;;;;;;;0.80;0.80;;;;;16.46;56.55;99404.72;5098501;28;8835;-60
2023/07/04 01:32:22;;;;;;;;;3.00;3.00;;;;;16.42;56.31;99398.03;5098372;28;8851;-58
2023/07/04 01:34:50;;;;;;;;;2.00;2.00;;;;;16.36;56.51;99404.06;5097988;28;8887;-60
2023/07/04 01:37:18;;;;;;;;;4.00;3.00;;;;;16.31;56.70;99398.34;5098188;28;8821;-59
2023/07/04 01:39:46;;;;;;;;;0.50;0.50;;;;;16.26;56.53;99401.56;5098308;28;8845;-60
2023/07/04 01:42:14;;;;;;;;;3.50;3.50;;;;;16.24;57.08;99400.03;5098019;28;8844;-59
2023/07/04 01:44:42;;;;;;;;;2.50;2.50;;;;;16.22;57.00;99406.63;5098271;28;9491;-58
2023/07/04 01:47:09;;;;;;;;;3.00;3.00;;;;;16.17;57.46;99397.22;5097196;28;8830;-58
2023/07/04 01:49:37;;;;;;;;;4.00;3.50;;;;;16.14;57.18;99398.56;5096984;28;8818;-57
2023/07/04 01:52:04;;;;;;;;;6.20;2.60;;;;;16.11;57.63;99393.53;5097694;28;8845;-60
2023/07/04 01:54:32;;;;;;;;;1.00;1.00;;;;;16.07;57.53;99398.41;5097672;28;8802;-59
2023/07/04 01:57:02;;;;;;;;;1.00;1.00;;;;;16.03;57.25;99399.75;5097702;28;8818;-57
2023/07/04 01:59:29;;;;;;;;;4.00;3.00;;;;;15.99;57.72;99406.47;5097388;28;8848;-58
2023/07/04 02:01:57;;;;;;;;;3.50;2.50;;;;;15.95;57.92;99404.28;5097737;28;9511;-57
2023/07/04 02:04:25;;;;;;;;;1.50;1.50;;;;;15.91;57.80;99414.53;5097594;28;8798;-58
2023/07/04 02:06:53;;;;;;;;;1.50;1.50;;;;;15.89;57.82;99413.00;5097718;28;8818;-57
2023/07/04 02:09:21;;;;;;;;;4.75;3.75;;;;;15.86;57.78;99413.38;5097476;28;9516;-58
2023/07/04 02:11:49;;;;;;;;;3.00;3.00;;;;;15.83;58.20;99413.69;5097655;28;8859;-59
2023/07/04 02:14:16;;;;;;;;;3.75;3.75;;;;;15.81;58.68;99413.03;5097832;28;8821;-59
2023/07/04 02:16:44;;;;;;;;;4.00;3.00;;;;;15.77;58.79;99409.00;5096606;28;8960;-57
2023/07/04 02:19:12;;;;;;;;;2.00;2.00;;;;;15.74;58.25;99414.69;5096759;28;8818;-59
2023/07/04 02:21:40;;;;;;;;;2.00;2.00;;;;;15.73;58.88;99410.34;5096179;28;8818;-58
2023/07/04 02:24:07;;;;;;;;;2.00;2.00;;;;;15.72;58.66;99411.34;5097326;28;8848;-57
2023/07/04 02:26:35;;;;;;;;;0.50;0.50;;;;;15.69;59.17;99414.38;5096747;28;8803;-57
2023/07/04 02:29:03;;;;;;;;;1.00;1.00;;;;;15.65;58.74;99416.56;5096852;28;8931;-59
2023/07/04 02:31:31;;;;;;;;;2.50;2.50;;;;;15.61;58.83;99415.19;5097302;28;8829;-58
2023/07/04 02:34:01;;;;;;;;;2.00;2.00;;;;;15.60;58.99;99416.22;5097556;28;8841;-59
2023/07/04 02:36:29;;;;;;;;;2.50;1.00;;;;;15.58;58.82;99420.06;5097380;28;9468;-59
2023/07/04 02:38:57;;;;;;;;;4.50;4.50;;;;;15.55;59.32;99423.09;5096802;28;8794;-59
2023/07/04 02:41:25;;;;;;;;;4.50;4.00;;;;;15.53;58.99;99425.06;5096909;28;8826;-58
2023/07/04 02:43:52;;;;;;;;;2.00;1.50;;;;;15.50;59.24;99417.38;5097232;28;8861;-58
2023/07/04 02:46:20;;;;;;;;;2.50;2.50;;;;;15.48;59.60;99422.06;5097039;28;8956;-58
2023/07/04 02:48:48;;;;;;;;;3.00;1.50;;;;;15.47;59.94;99412.34;5097000;28;8833;-58
2023/07/04 02:51:16;;;;;;;;;3.75;3.00;;;;;15.45;59.64;99419.69;5096928;28;8860;-59
2023/07/04 02:53:43;;;;;;;;;3.75;3.25;;;;;15.43;59.91;99411.84;5096814;28;8842;-59
2023/07/04 02:56:11;;;;;;;;;3.25;3.00;;;;;15.42;60.05;99412.84;5097279;28;9531;-58
2023/07/04 02:58:39;;;;;;;;;3.00;1.00;;;;;15.41;59.61;99419.19;5096534;28;8856;-60
2023/07/04 03:01:06;;;;;;;;;5.00;4.00;;;;;15.38;59.97;99419.53;5095687;28;8824;-59
2023/07/04 03:03:34;;;;;;;;;2.50;2.50;;;;;15.37;59.72;99425.06;5096297;28;8837;-59
2023/07/04 03:06:02;;;;;;;;;3.00;3.00;;;;;15.36;60.61;99428.75;5096620;28;8902;-59
2023/07/04 03:08:30;;;;;;;;;4.00;3.00;;;;;15.38;60.20;99422.22;5096208;28;8822;-58
2023/07/04 03:10:58;;;;;;;;;3.25;3.00;;;;;15.41;59.98;99413.00;5095163;28;8818;-57
2023/07/04 03:13:26;;;;;;;;;3.00;3.00;;;;;15.44;60.16;99426.06;5095374;28;8948;-60
2023/07/04 03:15:53;;;;;;;;;2.50;1.00;;;;;15.45;60.32;99425.91;5096540;28;8961;-60
2023/07/04 03:18:21;;;;;;;;;4.00;3.00;;;;;15.47;60.06;99426.59;5096404;28;8849;-59
2023/07/04 03:20:49;;;;;;;;;3.00;3.00;;;;;15.48;59.75;99427.44;5096018;28;8808;-60
2023/07/04 03:23:17;;;;;;;;;3.50;3.25;;;;;15.50;59.96;99428.09;5096509;28;8831;-60
2023/07/04 03:25:45;;;;;;;;;1.00;1.00;;;;;15.51;60.29;99427.09;5095951;28;8806;-60
2023/07/04 03:28:13;;;;;;;;;3.00;3.00;;;;;15.51;60.23;99427.09;5096626;28;8842;-60
2023/07/04 03:30:41;;;;;;;;;3.00;3.00;;;;;15.51;60.17;99424.41;5096170;28;8822;-59
2023/07/04 03:33:09;;;;;;;;;6.00;4.00;;;;;15.51;60.54;99429.78;5095688;28;8857;-59
2023/07/04 03:35:36;;;;;;;;;4.50;4.00;;;;;15.51;59.74;99427.94;5096062;28;8826;-60
2023/07/04 03:38:20;;;;;;;;;4.25;3.00;;;;;15.51;60.19;99430.63;5095937;28;9441;-59
2023/07/04 03:40:47;;;;;;;;;2.00;1.50;;;;;15.50;59.58;99428.09;5096437;28;8815;-60
2023/07/04 03:43:16;;;;;;;;;3.00;2.50;;;;;15.48;60.18;99439.00;5096012;28;8836;-59
2023/07/04 03:45:43;;;;;;;;;3.00;3.00;;;;;15.46;60.57;99430.28;5095760;28;8839;-59
2023/07/04 03:48:11;;;;;;;;;3.00;3.00;;;;;15.43;60.62;99432.44;5096163;28;8986;-58
2023/07/04 03:50:39;;;;;;;;;1.00;1.00;;;;;15.40;60.18;99432.78;5095689;28;9583;-60
2023/07/04 03:53:06;;;;;;;;;3.00;1.00;;;;;15.38;60.21;99427.56;5095818;28;8836;-59
2023/07/04 03:55:34;;;;;;;;;3.50;3.00;;;;;15.38;61.25;99424.91;5095646;28;8835;-59
2023/07/04 03:58:03;;;;;;;;;1.00;1.00;;;;;15.37;61.01;99425.91;5095607;28;8823;-60
2023/07/04 04:00:30;;;;;;;;;3.25;3.25;;;;;15.36;60.61;99432.28;5095466;28;8812;-59
2023/07/04 04:02:58;;;;;;;;;2.00;1.00;;;;;15.34;60.87;99431.63;5095475;28;8841;-59
2023/07/04 04:05:26;;;;;;;;;4.50;4.00;;;;;15.33;61.28;99434.44;5095661;28;8804;-60
2023/07/04 04:07:54;;;;;;;;;1.00;1.00;;;;;15.30;61.22;99432.03;5095675;28;9896;-59
2023/07/04 04:10:22;;;;;;;;;3.25;3.00;;;;;15.28;61.49;99442.09;5098002;28;9500;-60
2023/07/04 04:12:49;;;;;;;;;1.50;1.50;;;;;15.25;61.45;99437.09;5098879;28;8840;-60
2023/07/04 04:15:17;;;;;;;;;6.00;3.50;;;;;15.24;61.95;99440.78;5099190;28;8830;-59
2023/07/04 04:17:45;;;;;;;;;2.50;2.00;;;;;15.23;61.93;99436.38;5099367;28;8858;-60
2023/07/04 04:20:13;;;;;;;;;3.00;3.00;;;;;15.21;61.75;99438.41;5098694;28;8817;-59
2023/07/04 04:22:45;;;;;;;;;3.00;1.00;;;;;15.23;61.77;99441.75;5098470;28;8896;-60
2023/07/04 04:25:13;;;;;;;;;3.00;1.50;;;;;15.27;61.75;99435.06;5098722;28;8918;-60
2023/07/04 04:27:41;;;;;;;;;2.50;2.50;;;;;15.28;61.97;99434.91;5099466;28;8914;-59
2023/07/04 04:30:10;;;;;;;;;3.25;3.00;;;;;15.33;61.46;99455.91;5099159;28;8814;-58
2023/07/04 04:32:38;;;;;;;;;2.50;2.50;;;;;15.35;61.78;99448.53;5099042;28;8849;-59
2023/07/04 04:35:08;;;;;;;;;5.00;4.00;;;;;15.41;61.62;99458.63;5099347;28;8802;-57
2023/07/04 04:37:35;;;;;;;;;0.50;0.50;;;;;15.46;61.66;99448.25;5099266;28;8849;-58
2023/07/04 04:40:04;;;;;;;;;3.00;3.00;;;;;15.50;61.87;99457.63;5098262;28;8814;-59
2023/07/04 04:42:34;;;;;;;;;4.00;3.50;;;;;15.53;61.76;99457.28;5098584;28;8810;-59
2023/07/04 04:45:03;;;;;;;;;4.00;3.00;;;;;15.59;61.72;99456.63;5098207;28;8833;-57
2023/07/04 04:47:33;;;;;;;;;1.25;0.25;;;;;15.64;61.46;99462.34;5098385;28;8854;-57
2023/07/04 04:56:14;;;;;;;;;3.25;3.25;;;;;15.81;60.82;99458.66;5098699;28;8767;-59
2023/07/04 04:58:43;;;;;;;;;1.50;1.50;;;;;15.85;60.79;99468.09;5098183;28;9823;-57
2023/07/04 05:01:11;;;;;;;;;4.00;3.75;;;;;15.88;60.70;99473.97;5098217;28;9492;-58
2023/07/04 05:03:38;;;;;;;;;3.00;3.00;;;;;15.93;60.87;99478.81;5098566;28;8856;-58
2023/07/04 05:06:06;;;;;;;;;6.00;6.00;;;;;15.99;61.14;99480.84;5098249;28;8928;-58
2023/07/04 05:08:34;;;;;;;;;3.50;3.25;;;;;16.06;60.62;99482.69;5098216;28;8845;-58
2023/07/04 05:11:04;;;;;;;;;2.00;1.00;;;;;16.14;60.99;99481.84;5092408;28;8838;-57
2023/07/04 05:13:32;;;;;;;;;5.50;5.50;;;;;16.14;60.69;99479.19;5097993;28;8821;-56
2023/07/04 05:16:00;;;;;;;;;6.00;4.00;;;;;16.14;61.07;99473.81;5098052;28;8826;-58
2023/07/04 05:18:28;;;;;;;;;3.00;2.50;;;;;16.12;61.35;99478.47;5097779;28;8822;-58
2023/07/04 05:20:55;;;;;;;;;5.50;4.00;;;;;16.09;61.45;99470.78;5096903;28;9565;-57
2023/07/04 05:23:23;;;;;;;;;4.50;4.00;;;;;16.05;61.49;99475.63;5098165;28;9686;-59
2023/07/04 05:25:51;;;;;;;;;1.00;0.75;;;;;16.05;61.75;99480.16;5098096;28;8803;-57
2023/07/04 05:28:18;;;;;;;;;3.50;3.50;;;;;16.11;61.32;99482.19;5097936;28;8811;-57
2023/07/04 05:30:46;;;;;;;;;6.50;3.50;;;;;16.18;61.45;99482.16;5097992;28;8835;-60
2023/07/04 05:33:14;;;;;;;;;3.00;2.50;;;;;16.23;61.11;99484.34;5097493;28;8819;-58
2023/07/04 05:35:42;;;;;;;;;4.00;3.60;;;;;16.23;60.96;99490.56;5097408;28;8842;-57
2023/07/04 05:38:10;;;;;;;;;3.00;3.00;;;;;16.25;60.98;99488.56;5097087;28;8818;-59
2023/07/04 05:40:38;;;;;;;;;2.00;2.00;;;;;16.28;61.12;99477.47;5096725;28;8822;-60
2023/07/04 05:43:05;;;;;;;;;3.80;3.00;;;;;16.38;60.66;99472.78;5096540;28;8857;-59
2023/07/04 05:45:33;;;;;;;;;2.60;2.60;;;;;16.50;61.01;99481.34;5096715;28;8841;-57
2023/07/04 05:48:01;;;;;;;;;4.80;4.00;;;;;16.52;60.41;99474.78;5097554;28;8841;-57
2023/07/04 05:50:29;;;;;;;;;6.80;6.00;;;;;16.56;60.48;99478.81;5097282;28;8826;-59
2023/07/04 05:52:57;;;;;;;;;3.60;3.40;;;;;16.64;60.22;99486.84;5097601;28;8906;-59
2023/07/04 05:55:24;;;;;;;;;3.80;3.80;;;;;16.70;60.25;99479.97;5097113;28;8806;-57
2023/07/04 05:57:52;;;;;;;;;4.00;4.00;;;;;16.79;60.84;99479.75;5097398;28;8822;-59
2023/07/04 06:00:20;;;;;;;;;5.00;3.50;;;;;16.89;60.21;99490.31;5097468;28;8961;-58
2023/07/04 06:02:48;;;;;;;;;5.00;5.00;;;;;17.02;59.65;99496.81;5096213;28;8841;-57
2023/07/04 06:05:16;;;;;;;;;3.20;2.20;;;;;17.14;60.24;99503.50;5096581;28;8867;-58
2023/07/04 06:07:44;;;;;;;;;6.00;5.60;;;;;17.25;59.71;99511.19;5096393;28;8867;-60
2023/07/04 06:10:11;;;;;;;;;0.00;0.00;;;;;17.30;59.27;99514.22;5095872;28;8814;-60
2023/07/04 06:12:39;;;;;;;;;1.80;1.00;;;;;17.37;59.48;99514.38;5096035;28;8818;-59
2023/07/04 06:15:07;;;;;;;;;4.60;4.40;;;;;17.48;59.09;99511.31;5096463;28;8810;-60
2023/07/04 06:17:35;;;;;;;;;6.00;6.00;;;;;17.54;59.13;99511.44;5096406;28;8956;-59
2023/07/04 06:20:03;;;;;;;;;6.60;6.20;;;;;17.52;59.52;99508.09;5095980;28;9495;-60
2023/07/04 06:22:31;;;;;;;;;5.60;4.40;;;;;17.48;59.56;99532.84;5095327;28;8814;-58
2023/07/04 06:25:01;;;;;;;;;5.20;4.00;;;;;17.42;59.39;99512.00;5095374;28;8836;-58
2023/07/04 06:27:29;;;;;;;;;6.40;6.00;;;;;17.35;59.95;99514.53;5094527;28;8822;-58
2023/07/04 06:29:57;;;;;;;;;3.80;3.20;;;;;17.31;60.12;99523.13;5094741;28;8832;-59
2023/07/04 06:32:24;;;;;;;;;5.20;4.60;;;;;17.32;59.86;99519.44;5095086;28;8830;-59
2023/07/04 06:34:52;;;;;;;;;8.20;6.40;;;;;17.39;60.12;99518.56;5095771;28;8814;-59
2023/07/04 06:37:21;;;;;;;;;7.60;6.40;;;;;17.47;59.65;99515.84;5095212;28;8829;-57
2023/07/04 06:39:49;;;;;;;;;3.80;3.80;;;;;17.49;59.97;99513.81;5095461;28;8937;-57
2023/07/04 06:42:16;;;;;;;;;9.40;6.80;;;;;17.56;59.42;99511.25;5095192;28;8840;-60
2023/07/04 06:44:44;;;;;;;;;5.20;4.40;;;;;17.60;59.51;99521.50;5095059;28;8849;-57
2023/07/04 06:47:12;;;;;;;;;6.40;6.20;;;;;17.63;59.63;99523.00;5095456;28;9476;-58
2023/07/04 06:49:40;;;;;;;;;9.20;6.80;;;;;17.58;60.24;99526.22;5095217;28;9554;-58
2023/07/04 06:52:08;;;;;;;;;7.00;4.00;;;;;17.58;59.82;99520.00;5095011;28;8907;-59
2023/07/04 06:54:37;;;;;;;;;3.20;3.20;;;;;17.52;59.99;99526.94;5095634;28;8842;-58
2023/07/04 06:57:05;;;;;;;;;5.60;5.60;;;;;17.49;60.37;99535.38;5095531;28;9464;-58
2023/07/04 06:59:33;;;;;;;;;6.00;6.00;;;;;17.55;60.09;99533.81;5094579;28;8825;-60
2023/07/04 07:02:01;;;;;;;;;5.60;4.80;;;;;17.65;60.08;99537.13;5095139;28;8826;-61
2023/07/04 07:04:29;;;;;;;;;6.00;6.00;;;;;17.73;59.48;99534.38;5095289;28;8915;-57
2023/07/04 07:06:57;;;;;;;;;4.40;4.00;;;;;17.74;60.08;99539.59;5095221;28;8852;-58
2023/07/04 07:09:26;;;;;;;;;8.20;7.00;;;;;17.77;59.25;99541.94;5094653;28;8832;-58
2023/07/04 07:11:54;;;;;;;;;3.00;3.00;;;;;17.81;59.06;99540.56;5094519;28;8831;-59
2023/07/04 07:14:24;;;;;;;;;1.00;1.00;;;;;17.82;59.52;99539.56;5094237;28;8837;-57
2023/07/04 07:16:52;;;;;;;;;6.00;4.40;;;;;17.84;59.59;99534.00;5094486;28;8862;-59
2023/07/04 07:19:19;;;;;;;;;3.60;3.60;;;;;17.94;59.00;99538.16;5094745;28;8820;-57
2023/07/04 07:21:47;;;;;;;;;7.00;6.00;;;;;17.97;59.27;99537.78;5094099;28;8835;-59
2023/07/04 07:24:15;;;;;;;;;5.60;5.60;;;;;18.10;59.11;99539.88;5094353;28;8803;-60
2023/07/04 07:26:43;;;;;;;;;6.40;4.80;;;;;18.29;58.83;99551.00;5095363;28;8856;-61
2023/07/04 07:29:12;;;;;;;;;6.40;5.20;;;;;18.51;57.96;99546.66;5095017;28;8826;-60
2023/07/04 07:31:40;;;;;;;;;6.00;6.00;;;;;18.59;57.73;99547.41;5095220;28;8833;-59
2023/07/04 07:34:08;;;;;;;;;8.20;7.00;;;;;18.64;57.64;99549.56;5095873;28;8923;-59
2023/07/04 07:36:37;;;;;;;;;5.20;3.60;;;;;18.72;57.69;99549.47;5095371;28;8850;-59
2023/07/04 07:39:06;;;;;;;;;3.80;3.00;;;;;18.78;57.93;99555.00;5095576;28;8816;-60
2023/07/04 07:41:34;;;;;;;;;6.00;6.00;;;;;18.82;57.24;99559.00;5095751;28;8808;-58
2023/07/04 07:44:02;;;;;;;;;5.20;4.00;;;;;18.77;57.54;99556.03;5094258;28;8828;-61
2023/07/04 07:46:30;;;;;;;;;3.60;3.20;;;;;18.72;58.01;99557.56;5095204;28;8832;-60
2023/07/04 07:48:58;;;;;;;;;6.20;4.40;;;;;18.79;57.78;99558.53;5094774;28;9550;-59
2023/07/04 07:51:28;;;;;;;;;6.00;4.00;;;;;18.83;57.76;99559.84;5094446;28;8820;-58
2023/07/04 07:53:56;;;;;;;;;4.00;3.60;;;;;18.90;57.42;99560.78;5094677;28;8824;-60
2023/07/04 07:56:23;;;;;;;;;6.00;5.20;;;;;18.98;57.02;99553.44;5094408;28;8815;-60
2023/07/04 07:58:51;;;;;;;;;4.80;4.80;;;;;18.99;57.37;99565.06;5094620;28;8815;-60
2023/07/04 08:01:19;;;;;;;;;4.80;4.80;;;;;18.96;57.20;99565.47;5094705;28;8832;-60
2023/07/04 08:03:47;;;;;;;;;4.80;3.80;;;;;18.94;57.34;99567.47;5095149;28;8830;-60
2023/07/04 08:06:15;;;;;;;;;4.80;4.00;;;;;19.00;57.23;99566.75;5094996;28;8842;-60
2023/07/04 08:08:44;;;;;;;;;4.00;3.80;;;;;19.06;57.16;99550.63;5094263;28;8848;-60
2023/07/04 08:11:12;;;;;;;;;4.40;4.00;;;;;19.18;56.83;99559.97;5094870;28;9074;-60
2023/07/04 08:13:40;;;;;;;;;6.00;6.00;;;;;19.21;56.97;99556.91;5094083;28;9552;-58
2023/07/04 08:16:09;;;;;;;;;4.60;4.60;;;;;19.24;56.62;99563.81;5093458;28;8823;-60
2023/07/04 08:18:37;;;;;;;;;4.00;4.00;;;;;19.19;56.98;99558.97;5094894;28;9591;-60
2023/07/04 08:21:05;;;;;;;;;4.80;4.00;;;;;19.19;56.70;99558.97;5094237;28;8936;-60
2023/07/04 08:23:33;;;;;;;;;6.40;6.40;;;;;19.29;56.70;99556.00;5094448;28;8814;-58
2023/07/04 08:26:01;;;;;;;;;4.80;4.80;;;;;19.41;56.30;99555.34;5094658;28;8952;-58
2023/07/04 08:28:29;;;;;;;;;7.00;6.20;;;;;19.54;55.96;99570.88;5094370;28;8956;-59
2023/07/04 08:30:57;;;;;;;;;6.00;6.00;;;;;19.57;55.63;99552.44;5094229;28;8936;-58
2023/07/04 08:33:25;;;;;;;;;6.20;5.80;;;;;19.65;55.51;99544.22;5092937;28;8953;-59
2023/07/04 08:35:53;;;;;;;;;3.20;3.20;;;;;19.83;55.16;99544.66;5093837;28;8899;-58
2023/07/04 08:38:21;;;;;;;;;3.00;3.00;;;;;19.89;55.01;99551.16;5093744;28;8883;-59
2023/07/04 08:40:49;;;;;;;;;6.80;6.60;;;;;20.00;55.08;99550.66;5094327;28;8822;-59
2023/07/04 08:43:17;;;;;;;;;6.40;5.20;;;;;20.08;54.50;99547.84;5094586;28;8830;-59
2023/07/04 08:45:45;;;;;;;;;5.00;4.80;;;;;20.10;54.97;99560.16;5093486;28;8838;-59
2023/07/04 08:48:17;;;;;;;;;6.20;5.20;;;;;20.24;54.31;99553.03;5093613;28;8963;-58
2023/07/04 08:50:44;;;;;;;;;4.00;3.20;;;;;20.33;54.25;99536.47;5094503;28;8806;-58
2023/07/04 08:53:13;;;;;;;;;4.60;4.00;;;;;20.51;54.03;99547.69;5094169;28;8937;-61
2023/07/04 08:55:41;;;;;;;;;3.80;2.80;;;;;20.52;53.78;99551.22;5095231;28;8830;-58
2023/07/04 08:58:09;;;;;;;;;4.80;4.00;;;;;20.54;53.41;99555.41;5096946;28;8818;-58
2023/07/04 09:00:37;;;;;;;;;4.00;4.00;;;;;20.64;53.11;99558.59;5096693;28;8864;-58
2023/07/04 09:03:05;;;;;;;;;4.00;3.20;;;;;20.77;53.07;99556.00;5096134;28;9529;-59
2023/07/04 09:05:35;;;;;;;;;1.00;1.00;;;;;20.89;52.51;99566.13;5095934;28;8909;-58
2023/07/04 09:08:03;;;;;;;;;4.00;4.00;;;;;21.01;52.23;99561.88;5095591;28;9484;-58
2023/07/04 09:10:32;;;;;;;;;4.80;4.80;;;;;21.17;52.16;99568.81;5096040;28;8842;-59
2023/07/04 09:12:59;;;;;;;;;4.20;4.00;;;;;21.28;51.99;99568.28;5095450;28;8822;-59
2023/07/04 09:15:27;;;;;;;;;2.40;2.40;;;;;21.38;51.64;99568.75;5095772;28;8829;-59
2023/07/04 09:17:57;;;;;;;;;3.20;2.40;;;;;21.47;51.43;99570.25;5095793;28;9622;-57
2023/07/04 09:20:45;;;;;;;;;4.00;4.00;;;;;21.68;50.74;99564.78;5096323;28;9476;-58
2023/07/04 09:23:13;;;;;;;;;7.00;4.20;;;;;21.81;50.58;99560.28;5096115;28;8800;-60
2023/07/04 09:25:41;;;;;;;;;4.00;4.00;;;;;21.83;50.03;99562.75;5096894;28;8849;-58
2023/07/04 09:28:09;;;;;;;;;4.20;4.20;;;;;21.83;50.59;99573.59;5097051;28;8950;-59
2023/07/04 09:30:38;;;;;;;;;2.00;2.00;;;;;21.78;50.42;99590.47;5096557;28;8824;-60
2023/07/04 09:33:09;;;;;;;;;2.00;2.00;;;;;21.72;50.17;99585.84;5097468;28;8897;-58
2023/07/04 09:35:38;;;;;;;;;4.80;4.80;;;;;21.82;50.19;99585.50;5100127;28;9470;-57
2023/07/04 09:38:10;;;;;;;;;4.80;4.20;;;;;21.94;50.40;99590.13;5099951;28;8914;-58
2023/07/04 09:40:41;;;;;;;;;7.00;6.20;;;;;22.01;49.55;99591.00;5099422;28;8981;-59
2023/07/04 09:43:09;;;;;;;;;4.40;4.40;;;;;21.95;50.11;99590.97;5096119;28;8838;-60
2023/07/04 09:45:37;;;;;;;;;2.80;2.80;;;;;21.81;50.22;99603.66;5096543;28;8820;-60
2023/07/04 09:48:05;;;;;;;;;3.60;3.60;;;;;21.80;50.11;99590.28;5096657;28;8833;-59
2023/07/04 09:50:34;;;;;;;;;2.40;2.40;;;;;21.84;49.68;99586.13;5096137;28;8841;-59
2023/07/04 09:53:03;;;;;;;;;2.00;2.00;;;;;21.86;49.62;99593.00;5096253;28;8834;-60
2023/07/04 09:55:31;;;;;;;;;2.40;2.40;;;;;21.91;49.62;99584.28;5096022;28;8838;-61
2023/07/04 09:57:59;;;;;;;;;4.40;4.00;;;;;22.09;49.27;99571.81;5096055;28;8815;-59
2023/07/04 10:00:27;;;;;;;;;4.60;4.60;;;;;22.19;49.35;99576.84;5096237;28;8828;-59
2023/07/04 10:02:55;;;;;;;;;5.00;4.40;;;;;22.25;49.11;99560.59;5096357;28;8815;-60
2023/07/04 10:05:25;;;;;;;;;4.00;4.00;;;;;22.54;48.05;99571.09;5096392;28;8900;-59
2023/07/04 10:07:53;;;;;;;;;5.00;5.00;;;;;22.62;47.73;99573.63;5095700;28;8823;-60
2023/07/04 10:10:21;;;;;;;;;4.00;2.40;;;;;22.79;47.65;99568.63;5096071;28;9617;-61
2023/07/04 10:12:49;;;;;;;;;6.00;6.00;;;;;23.08;47.01;99570.91;5095213;28;8904;-59
2023/07/04 10:15:17;;;;;;;;;4.00;2.00;;;;;23.40;46.05;99570.88;5095116;28;8831;-59
2023/07/04 10:17:46;;;;;;;;;4.00;4.00;;;;;23.80;45.90;99563.41;5094691;28;8867;-59
2023/07/04 10:20:15;;;;;;;;;3.60;3.60;;;;;24.09;45.89;99569.19;5094060;28;9673;-60
2023/07/04 10:22:43;;;;;;;;;5.40;5.00;;;;;24.31;45.27;99569.69;5093595;28;8853;-61
2023/07/04 10:25:11;;;;;;;;;4.00;4.00;;;;;24.30;45.27;99562.56;5094152;28;8852;-59
2023/07/04 10:27:39;;;;;;;;;5.80;5.60;;;;;24.15;45.92;99567.47;5094392;28;8841;-59
2023/07/04 10:30:07;;;;;;;;;5.40;5.00;;;;;24.39;45.79;99563.97;5095370;28;8927;-60
2023/07/04 10:32:36;;;;;;;;;4.60;4.60;;;;;24.82;45.02;99564.94;5094468;28;8842;-59
2023/07/04 10:35:05;;;;;;;;;5.00;5.00;;;;;25.15;43.99;99560.03;5095267;28;8922;-61
2023/07/04 10:37:33;;;;;;;;;5.20;3.60;;;;;25.12;44.05;99572.25;5094308;28;8829;-60
2023/07/04 10:40:02;;;;;;;;;4.20;4.20;;;;;25.02;43.95;99571.06;5094994;28;8818;-61
2023/07/04 10:42:30;;;;;;;;;3.20;3.20;;;;;25.35;43.59;99560.72;5094711;28;8826;-60
2023/07/04 10:44:59;;;;;;;;;5.20;5.20;;;;;25.68;43.34;99560.13;5095519;28;8822;-60
2023/07/04 10:47:27;;;;;;;;;6.00;5.80;;;;;26.00;42.72;99563.53;5095102;28;8838;-60
2023/07/04 10:49:55;;;;;;;;;4.60;4.60;;;;;26.20;42.51;99562.19;5095065;28;8940;-60
2023/07/04 10:52:23;;;;;;;;;3.80;3.40;;;;;26.34;42.54;99557.38;5094719;28;8860;-59
2023/07/04 10:54:51;;;;;;;;;1.00;1.00;;;;;26.64;42.10;99569.16;5094045;28;8830;-59
2023/07/04 10:57:20;;;;;;;;;5.00;5.00;;;;;26.75;41.72;99560.13;5094011;28;8869;-60
2023/07/04 10:59:48;;;;;;;;;5.00;5.00;;;;;26.76;42.05;99561.78;5094131;28;8834;-59
2023/07/04 11:02:16;;;;;;;;;2.80;2.80;;;;;26.71;41.60;99562.50;5095059;28;8830;-61
2023/07/04 11:04:44;;;;;;;;;3.00;3.00;;;;;27.00;41.88;99563.47;5094075;28;8899;-59
2023/07/04 11:07:13;;;;;;;;;5.40;5.00;;;;;27.15;41.11;99562.00;5092604;28;8861;-59
2023/07/04 11:09:45;;;;;;;;;5.60;5.00;;;;;26.98;41.31;99571.09;5092932;28;8829;-59
2023/07/04 11:12:13;;;;;;;;;5.00;5.00;;;;;26.27;42.47;99573.84;5094261;28;8845;-59
2023/07/04 11:14:41;;;;;;;;;2.00;1.40;;;;;25.98;42.73;99568.38;5094128;28;8860;-59
2023/07/04 11:17:10;;;;;;;;;5.80;5.00;;;;;25.73;42.35;99579.34;5095329;28;8980;-59
2023/07/04 11:19:38;;;;;;;;;5.00;3.80;;;;;25.77;42.22;99572.41;5094671;28;8842;-59
2023/07/04 11:22:06;;;;;;;;;6.60;5.00;;;;;26.19;42.16;99574.19;5095223;28;8982;-59
2023/07/04 11:24:39;;;;;;;;;5.40;5.00;;;;;26.64;40.95;99564.50;5094648;28;8822;-59
2023/07/04 11:27:08;;;;;;;;;5.80;5.00;;;;;26.61;41.03;99569.59;5094869;28;8822;-59
2023/07/04 11:29:36;;;;;;;;;3.00;3.00;;;;;26.63;41.16;99571.03;5094004;28;8848;-59
2023/07/04 11:32:05;;;;;;;;;1.20;1.00;;;;;26.92;41.12;99574.75;5094177;28;8825;-59
2023/07/04 11:34:33;;;;;;;;;4.20;4.20;;;;;27.21;40.47;99584.81;5094734;28;8838;-59
2023/07/04 11:37:01;;;;;;;;;2.80;2.80;;;;;27.22;40.32;99568.19;5094147;28;8811;-59
2023/07/04 11:39:30;;;;;;;;;2.60;2.20;;;;;26.93;39.87;99558.13;5094288;28;8847;-58
2023/07/04 11:41:58;;;;;;;;;4.80;3.00;;;;;27.19;39.81;99570.56;5094316;28;8831;-58
2023/07/04 11:44:28;;;;;;;;;1.80;1.60;;;;;27.79;39.31;99569.22;5095294;28;8869;-62
2023/07/04 11:46:58;;;;;;;;;2.20;2.20;;;;;28.32;38.32;99570.59;5095329;28;8835;-59
2023/07/04 11:49:26;;;;;;;;;1.00;1.00;;;;;28.68;37.69;99581.16;5094677;28;8942;-60
2023/07/04 11:51:55;;;;;;;;;2.00;2.00;;;;;28.62;37.93;99573.09;5093887;28;8823;-59